메인 페이지
METAR-TAF:

METAR-TAF

공항 :

스프링필드 / Chicopee, 매사추세츠, 미국

위도: 42-12N, 경도: 072-32W, 고도: 75m

현재 날씨관측

예보는 32분 전, 09:56시(UTC)에 발표되었습니다.
북북동7kt
온도 4°C
습도 87%
기압 1015 hPa
시정: 16.1km
고도 1200ft 상공 흐림

METAR: KCEF 300956Z AUTO 03007KT 10SM OVC012 04/02 A2998 RMK AO2 SLP160 T00380022

시각: 06:28 (10:28 UTC)

예보

예보는 28분 전, 10:00시(UTC)에 발표되었습니다.
예보 대상 시간: 30일 10시부터 31일 16시까지 (UTC)
북북동9kt
시정 10km 이상
고도 1200ft 상공 흐림
전환 중
30일 19시부터 30일 20시까지 (UTC)
북동9kt
시정: 9000m
고도 1200ft 상공 흐림
약한소나기
전환 중
31일 00시부터 31일 01시까지 (UTC)
북동9kt
시정 10km 이상
고도 1000ft 상공 구름 많음
고도 3000ft 상공 흐림
일시적
31일 06시부터 31일 10시까지 (UTC)
시정: 9000m
약한소낙눈
전환 중
31일 14시부터 31일 15시까지 (UTC)
9kt
시정 10km 이상
고도 1000ft 상공 구름 조금
고도 3000ft 상공 구름 많음
고도 14000ft 상공 구름 많음

TAF: KCEF 301000Z 3010/3116 03009KT 9999 OVC012 510106 QNH2985INS BECMG 3019/3020 05009KT 9000 -SHRA OVC012 610309 510104 QNH2985INS BECMG 3100/3101 04009KT 9999 NSW BKN010 OVC030 620159 QNH2994INS TEMPO 3106/3110 9000 -SHSN 610109 BECMG 3114/3115 01009KT 9999 FEW010 BKN030 BKN140 QNH3005INS TX08/3019Z TN01/3110Z

4,000개 이상의 공항 관측 자료 및 예보 (METAR 및 TAF 보고).

지도상에서 검색 가능한 기상관측소가 노란 점과 빨간 점으로 표시되어 있습니다.

기상관측소 명을 보려면 표시 위로 마우스를 이동하세요.

날씨 관측과 예보를 보려면 클릭하세요.

지도 변경 : 확대하려면 엑스 표시가 있는 녹색 버튼, 축소하려면 빼기 표시가 있는 녹색 버튼, 다음 페이지의 지도를 보려면 녹색 화살표를 클릭하세요.


METAR-TAF: